Time;durP1;ratioP1;P1;durP2;ratioP2;P2;SDS_P1;SDS_P2;PMS_P1;PMS_P2;Temp;Humidity;BMP_temperature;BMP_pressure;BME280_temperature;BME280_humidity;BME280_pressure;Samples;Min_cycle;Max_cycle;Signal;HPM_P1;HPM_P2
2023/12/08 00:01:01;;;;;;;;;;;;;;;;;;5051522;28;19936;-84
2023/12/08 00:03:26;;;;;;;;;;;;;;;;;;5053307;28;19920;-84
2023/12/08 00:05:51;;;;;;;;;;;;;;;;;;5045266;28;19920;-83
2023/12/08 00:08:16;;;;;;;;;;;;;;;;;;5047048;28;19913;-83
2023/12/08 00:10:41;;;;;;;;;;;;;;;;;;5043354;28;19920;-83
2023/12/08 00:13:06;;;;;;;;;;;;;;;;;;5045169;28;19948;-83
2023/12/08 00:15:31;;;;;;;;;;;;;;;;;;5052418;28;20272;-84
2023/12/08 00:17:56;;;;;;;;;;;;;;;;;;5054364;28;19912;-83
2023/12/08 00:20:22;;;;;;;;;;;;;;;;;;5044280;28;19948;-83
2023/12/08 00:22:47;;;;;;;;;;;;;;;;;;5051174;28;20003;-84
2023/12/08 00:25:12;;;;;;;;;;;;;;;;;;5054398;28;20280;-83
2023/12/08 00:27:37;;;;;;;;;;;;;;;;;;5052909;28;19920;-84
2023/12/08 00:30:03;;;;;;;;;;;;;;;;;;5043174;28;20682;-83
2023/12/08 00:32:28;;;;;;;;;;;;;;;;;;5049393;28;19956;-83
2023/12/08 00:34:53;;;;;;;;;;;;;;;;;;5047115;28;19962;-84
2023/12/08 00:37:19;;;;;;;;;;;;;;;;;;5046296;28;19913;-83
2023/12/08 00:39:44;;;;;;;;;;;;;;;;;;5040310;28;20387;-84
2023/12/08 00:42:09;;;;;;;;;;;;;;;;;;5052307;28;20265;-83
2023/12/08 00:44:34;;;;;;;;;;;;;;;;;;5049590;28;19920;-83
2023/12/08 00:46:59;;;;;;;;;;;;;;;;;;5051112;28;19955;-84
2023/12/08 00:49:24;;;;;;;;;;;;;;;;;;5049152;28;19916;-84
2023/12/08 00:51:49;;;;;;;;;;;;;;;;;;5051208;28;19913;-83
2023/12/08 00:54:15;;;;;;;;;;;;;;;;;;5047390;28;19967;-84
2023/12/08 00:56:40;;;;;;;;;;;;;;;;;;5051456;28;19921;-83
2023/12/08 00:59:05;;;;;;;;;;;;;;;;;;5048442;28;20364;-83
2023/12/08 01:01:30;;;;;;;;;;;;;;;;;;5050702;28;20353;-83
2023/12/08 01:03:55;;;;;;;;;;;;;;;;;;5046648;28;20271;-84
2023/12/08 01:06:20;;;;;;;;;;;;;;;;;;5052689;28;20367;-83
2023/12/08 01:08:45;;;;;;;;;;;;;;;;;;5043561;28;19920;-83
2023/12/08 01:11:10;;;;;;;;;;;;;;;;;;5049546;28;19953;-83
2023/12/08 01:13:36;;;;;;;;;;;;;;;;;;5053161;28;19912;-83
2023/12/08 01:16:01;;;;;;;;;;;;;;;;;;5046807;28;20344;-83
2023/12/08 01:18:26;;;;;;;;;;;;;;;;;;5053177;28;19934;-83
2023/12/08 01:20:53;;;;;;;;;;;;;;;;;;5049707;28;19961;-84
2023/12/08 01:23:18;;;;;;;;;;;;;;;;;;5048331;28;19921;-84
2023/12/08 01:25:44;;;;;;;;;;;;;;;;;;5053058;28;20364;-84
2023/12/08 01:28:09;;;;;;;;;;;;;;;;;;5048316;28;19972;-84
2023/12/08 01:30:34;;;;;;;;;;;;;;;;;;5047849;28;19913;-83
2023/12/08 01:32:59;;;;;;;;;;;;;;;;;;5041225;28;20024;-83
2023/12/08 01:35:24;;;;;;;;;;;;;;;;;;5049490;28;20334;-84
2023/12/08 01:37:49;;;;;;;;;;;;;;;;;;5043734;28;19928;-84
2023/12/08 01:40:14;;;;;;;;;;;;;;;;;;5047073;28;19917;-84
2023/12/08 01:42:40;;;;;;;;;;;;;;;;;;5053130;28;19958;-84
2023/12/08 01:45:05;;;;;;;;;;;;;;;;;;5044154;28;19958;-84
2023/12/08 01:47:30;;;;;;;;;;;;;;;;;;5053356;28;19958;-83
2023/12/08 01:49:55;;;;;;;;;;;;;;;;;;5048729;28;19965;-83
2023/12/08 01:52:20;;;;;;;;;;;;;;;;;;5045710;28;20281;-83
2023/12/08 01:54:45;;;;;;;;;;;;;;;;;;5052513;28;19928;-83
2023/12/08 01:57:10;;;;;;;;;;;;;;;;;;5047891;28;19923;-83
2023/12/08 01:59:35;;;;;;;;;;;;;;;;;;5040534;28;19952;-83
2023/12/08 02:02:01;;;;;;;;;;;;;;;;;;5045274;28;19913;-84
2023/12/08 02:04:26;;;;;;;;;;;;;;;;;;5046569;28;19917;-84
2023/12/08 02:06:51;;;;;;;;;;;;;;;;;;5049776;28;19913;-83
2023/12/08 02:09:16;;;;;;;;;;;;;;;;;;5052541;28;19920;-84
2023/12/08 02:11:41;;;;;;;;;;;;;;;;;;5051324;28;19912;-83
2023/12/08 02:14:06;;;;;;;;;;;;;;;;;;5052376;28;19912;-83
2023/12/08 02:16:31;;;;;;;;;;;;;;;;;;5049326;28;19920;-83
2023/12/08 02:18:56;;;;;;;;;;;;;;;;;;5051175;28;19917;-83
2023/12/08 02:21:21;;;;;;;;;;;;;;;;;;5049954;28;19912;-83
2023/12/08 02:23:47;;;;;;;;;;;;;;;;;;5051690;28;19944;-83
2023/12/08 02:26:12;;;;;;;;;;;;;;;;;;5051708;28;19912;-83
2023/12/08 02:28:37;;;;;;;;;;;;;;;;;;5044042;28;19913;-83
2023/12/08 02:31:02;;;;;;;;;;;;;;;;;;5051152;28;19975;-84
2023/12/08 02:33:27;;;;;;;;;;;;;;;;;;5047955;28;19913;-83
2023/12/08 02:35:52;;;;;;;;;;;;;;;;;;5049218;28;19948;-83
2023/12/08 02:38:17;;;;;;;;;;;;;;;;;;5043073;28;20358;-83
2023/12/08 02:40:42;;;;;;;;;;;;;;;;;;5049369;28;19932;-84
2023/12/08 02:43:07;;;;;;;;;;;;;;;;;;5050411;28;19913;-84
2023/12/08 02:45:32;;;;;;;;;;;;;;;;;;5043122;28;19916;-84
2023/12/08 02:47:57;;;;;;;;;;;;;;;;;;5049665;28;19966;-83
2023/12/08 02:50:22;;;;;;;;;;;;;;;;;;5046692;28;19917;-83
2023/12/08 02:52:48;;;;;;;;;;;;;;;;;;5054078;28;20380;-83
2023/12/08 02:55:13;;;;;;;;;;;;;;;;;;5043194;28;19921;-84
2023/12/08 02:57:38;;;;;;;;;;;;;;;;;;5048242;28;20015;-84
2023/12/08 03:00:03;;;;;;;;;;;;;;;;;;5050650;28;19927;-83
2023/12/08 03:02:28;;;;;;;;;;;;;;;;;;5041399;28;19913;-83
2023/12/08 03:04:56;;;;;;;;;;;;;;;;;;5045227;28;19919;-83
2023/12/08 03:07:21;;;;;;;;;;;;;;;;;;5052842;28;19913;-83
2023/12/08 03:09:46;;;;;;;;;;;;;;;;;;5055575;28;19919;-84
2023/12/08 03:12:11;;;;;;;;;;;;;;;;;;5052958;28;19916;-83
2023/12/08 03:14:36;;;;;;;;;;;;;;;;;;5054744;28;20304;-83
2023/12/08 03:17:02;;;;;;;;;;;;;;;;;;5052280;28;19921;-83
2023/12/08 03:19:27;;;;;;;;;;;;;;;;;;5055490;28;19963;-83
2023/12/08 03:21:52;;;;;;;;;;;;;;;;;;5051871;28;19952;-84
2023/12/08 03:24:17;;;;;;;;;;;;;;;;;;5046714;28;19913;-83
2023/12/08 03:26:42;;;;;;;;;;;;;;;;;;5045282;28;19925;-83
2023/12/08 03:29:07;;;;;;;;;;;;;;;;;;5043558;28;19913;-83
2023/12/08 03:31:32;;;;;;;;;;;;;;;;;;5047733;28;19955;-83
2023/12/08 03:33:57;;;;;;;;;;;;;;;;;;5046213;28;19928;-83
2023/12/08 03:36:22;;;;;;;;;;;;;;;;;;5043438;28;20373;-83
2023/12/08 03:38:48;;;;;;;;;;;;;;;;;;5045969;28;20374;-83
2023/12/08 03:41:13;;;;;;;;;;;;;;;;;;5045412;28;19927;-84
2023/12/08 03:43:38;;;;;;;;;;;;;;;;;;5047747;28;19913;-83
2023/12/08 03:46:03;;;;;;;;;;;;;;;;;;5048935;28;20368;-84
2023/12/08 03:48:28;;;;;;;;;;;;;;;;;;5049425;28;19917;-83
2023/12/08 03:50:53;;;;;;;;;;;;;;;;;;5052144;28;19923;-84
2023/12/08 03:53:18;;;;;;;;;;;;;;;;;;5046294;28;19919;-83
2023/12/08 03:55:43;;;;;;;;;;;;;;;;;;5052037;28;19974;-83
2023/12/08 03:58:08;;;;;;;;;;;;;;;;;;5050224;28;19994;-84
2023/12/08 04:00:33;;;;;;;;;;;;;;;;;;5050813;28;19913;-84
2023/12/08 04:02:59;;;;;;;;;;;;;;;;;;5046136;28;20296;-83
2023/12/08 04:05:24;;;;;;;;;;;;;;;;;;5045417;28;19916;-84
2023/12/08 04:07:49;;;;;;;;;;;;;;;;;;5054054;28;19959;-83
2023/12/08 04:10:14;;;;;;;;;;;;;;;;;;5046082;28;19913;-83
2023/12/08 04:12:39;;;;;;;;;;;;;;;;;;5053980;28;19920;-83
2023/12/08 04:15:04;;;;;;;;;;;;;;;;;;5052674;28;20427;-84
2023/12/08 04:17:29;;;;;;;;;;;;;;;;;;5051839;28;19962;-83
2023/12/08 04:19:54;;;;;;;;;;;;;;;;;;5054134;28;19965;-84
2023/12/08 04:22:20;;;;;;;;;;;;;;;;;;5050618;28;20033;-84
2023/12/08 04:24:45;;;;;;;;;;;;;;;;;;5050836;28;19979;-83
2023/12/08 04:27:10;;;;;;;;;;;;;;;;;;5054106;28;20261;-83
2023/12/08 04:29:35;;;;;;;;;;;;;;;;;;5045415;28;19958;-83
2023/12/08 04:32:00;;;;;;;;;;;;;;;;;;5051753;28;19952;-83
2023/12/08 04:34:25;;;;;;;;;;;;;;;;;;5051598;28;20000;-83
2023/12/08 04:36:50;;;;;;;;;;;;;;;;;;5046995;28;19971;-83
2023/12/08 04:39:15;;;;;;;;;;;;;;;;;;5042792;28;19913;-83
2023/12/08 04:41:40;;;;;;;;;;;;;;;;;;5053596;28;19940;-83
2023/12/08 04:44:05;;;;;;;;;;;;;;;;;;5048710;28;20004;-83
2023/12/08 04:46:30;;;;;;;;;;;;;;;;;;5050770;28;19913;-84
2023/12/08 04:48:56;;;;;;;;;;;;;;;;;;5048690;28;19920;-83
2023/12/08 04:51:21;;;;;;;;;;;;;;;;;;5051627;28;19912;-83
2023/12/08 04:53:46;;;;;;;;;;;;;;;;;;5047338;28;19913;-83
2023/12/08 04:56:11;;;;;;;;;;;;;;;;;;5051264;28;19956;-83
2023/12/08 04:58:36;;;;;;;;;;;;;;;;;;5053290;28;19965;-83
2023/12/08 05:01:01;;;;;;;;;;;;;;;;;;5043138;28;20467;-83
2023/12/08 05:03:26;;;;;;;;;;;;;;;;;;5053868;28;20010;-83
2023/12/08 05:05:51;;;;;;;;;;;;;;;;;;5046322;28;19913;-83
2023/12/08 05:08:16;;;;;;;;;;;;;;;;;;5049129;28;19967;-83
2023/12/08 05:10:41;;;;;;;;;;;;;;;;;;5044121;28;20276;-83
2023/12/08 05:13:07;;;;;;;;;;;;;;;;;;5052811;28;19939;-83
2023/12/08 05:15:32;;;;;;;;;;;;;;;;;;5048877;28;19917;-83
2023/12/08 05:17:57;;;;;;;;;;;;;;;;;;5052952;28;19966;-83
2023/12/08 05:20:22;;;;;;;;;;;;;;;;;;5044406;28;19913;-83
2023/12/08 05:22:48;;;;;;;;;;;;;;;;;;5052022;28;20268;-83
2023/12/08 05:25:13;;;;;;;;;;;;;;;;;;5052833;28;19963;-83
2023/12/08 05:27:38;;;;;;;;;;;;;;;;;;5052382;28;19974;-83
2023/12/08 05:30:03;;;;;;;;;;;;;;;;;;5052160;28;19916;-83
2023/12/08 05:32:28;;;;;;;;;;;;;;;;;;5048930;28;20280;-83
2023/12/08 05:34:54;;;;;;;;;;;;;;;;;;5048158;28;20363;-83
2023/12/08 05:37:19;;;;;;;;;;;;;;;;;;5052838;28;19913;-83
2023/12/08 05:39:44;;;;;;;;;;;;;;;;;;5045725;28;19994;-83
2023/12/08 05:42:09;;;;;;;;;;;;;;;;;;5052664;28;20059;-83
2023/12/08 05:44:34;;;;;;;;;;;;;;;;;;5046677;28;19913;-83
2023/12/08 05:46:59;;;;;;;;;;;;;;;;;;5051709;28;19913;-84
2023/12/08 05:49:25;;;;;;;;;;;;;;;;;;5045605;28;19924;-83
2023/12/08 05:51:50;;;;;;;;;;;;;;;;;;5047492;28;20403;-82
2023/12/08 05:54:16;;;;;;;;;;;;;;;;;;5047834;28;19913;-83
2023/12/08 05:56:41;;;;;;;;;;;;;;;;;;5049892;28;19991;-83
2023/12/08 05:59:06;;;;;;;;;;;;;;;;;;5045523;28;20356;-83
2023/12/08 06:01:31;;;;;;;;;;;;;;;;;;5046260;28;19952;-83
2023/12/08 06:03:56;;;;;;;;;;;;;;;;;;5051395;28;19923;-83
2023/12/08 06:06:21;;;;;;;;;;;;;;;;;;5049946;28;19913;-83
2023/12/08 06:08:46;;;;;;;;;;;;;;;;;;5051598;28;19975;-84
2023/12/08 06:11:11;;;;;;;;;;;;;;;;;;5048234;28;20491;-83
2023/12/08 06:13:36;;;;;;;;;;;;;;;;;;5051914;28;19920;-83
2023/12/08 06:16:03;;;;;;;;;;;;;;;;;;5048466;28;20369;-83
2023/12/08 06:18:28;;;;;;;;;;;;;;;;;;5051433;28;20373;-83
2023/12/08 06:20:53;;;;;;;;;;;;;;;;;;5046402;28;20391;-82
2023/12/08 06:23:19;;;;;;;;;;;;;;;;;;5051437;28;20030;-83
2023/12/08 06:25:44;;;;;;;;;;;;;;;;;;5047591;28;19916;-84
2023/12/08 06:28:09;;;;;;;;;;;;;;;;;;5042086;28;19956;-83
2023/12/08 06:30:34;;;;;;;;;;;;;;;;;;5040189;28;20007;-83
2023/12/08 06:32:59;;;;;;;;;;;;;;;;;;5047634;28;19920;-83
2023/12/08 06:35:24;;;;;;;;;;;;;;;;;;5048096;28;20288;-83
2023/12/08 06:37:50;;;;;;;;;;;;;;;;;;5047386;28;20354;-83
2023/12/08 06:40:18;;;;;;;;;;;;;;;;;;5048668;28;19920;-83
2023/12/08 06:42:43;;;;;;;;;;;;;;;;;;5049169;28;19960;-83
2023/12/08 06:45:08;;;;;;;;;;;;;;;;;;5041710;28;19912;-83
2023/12/08 06:47:34;;;;;;;;;;;;;;;;;;5050747;28;19920;-83
2023/12/08 06:49:59;;;;;;;;;;;;;;;;;;5043397;28;19927;-83
2023/12/08 06:52:24;;;;;;;;;;;;;;;;;;5047577;28;19913;-83
2023/12/08 06:54:49;;;;;;;;;;;;;;;;;;5048919;28;19913;-83
2023/12/08 06:57:14;;;;;;;;;;;;;;;;;;5052165;28;19924;-83
2023/12/08 06:59:39;;;;;;;;;;;;;;;;;;5041454;28;19913;-83
2023/12/08 07:02:04;;;;;;;;;;;;;;;;;;5051252;28;19913;-83
2023/12/08 07:04:29;;;;;;;;;;;;;;;;;;5046501;28;19920;-83
2023/12/08 07:06:54;;;;;;;;;;;;;;;;;;5045971;28;19913;-83
2023/12/08 07:09:20;;;;;;;;;;;;;;;;;;5052358;28;20413;-83
2023/12/08 07:11:45;;;;;;;;;;;;;;;;;;5049946;28;19912;-83
2023/12/08 07:14:10;;;;;;;;;;;;;;;;;;5048550;28;19913;-84
2023/12/08 07:16:35;;;;;;;;;;;;;;;;;;5046224;28;20039;-84
2023/12/08 07:19:00;;;;;;;;;;;;;;;;;;5049061;28;19913;-84
2023/12/08 07:21:26;;;;;;;;;;;;;;;;;;5047762;28;20344;-84
2023/12/08 07:23:51;;;;;;;;;;;;;;;;;;5039207;28;19939;-85
2023/12/08 07:26:16;;;;;;;;;;;;;;;;;;5050716;28;20370;-82
2023/12/08 07:28:42;;;;;;;;;;;;;;;;;;5048849;28;19913;-83
2023/12/08 07:31:08;;;;;;;;;;;;;;;;;;5044669;28;19916;-83
2023/12/08 07:33:33;;;;;;;;;;;;;;;;;;5043890;28;19917;-83
2023/12/08 07:35:58;;;;;;;;;;;;;;;;;;5039842;28;19924;-83
2023/12/08 07:38:23;;;;;;;;;;;;;;;;;;5044902;28;19920;-83
2023/12/08 07:40:49;;;;;;;;;;;;;;;;;;5053137;28;20037;-83
2023/12/08 07:43:14;;;;;;;;;;;;;;;;;;5049702;28;20291;-84
2023/12/08 07:45:39;;;;;;;;;;;;;;;;;;5051477;28;20014;-83
2023/12/08 07:48:04;;;;;;;;;;;;;;;;;;5051629;28;20436;-83
2023/12/08 07:50:29;;;;;;;;;;;;;;;;;;5052559;28;19913;-83
2023/12/08 07:52:54;;;;;;;;;;;;;;;;;;5047099;28;20369;-88
2023/12/08 07:55:19;;;;;;;;;;;;;;;;;;5047693;28;19919;-85
2023/12/08 07:57:44;;;;;;;;;;;;;;;;;;5046669;28;20368;-85
2023/12/08 08:00:12;;;;;;;;;;;;;;;;;;5046154;28;20368;-85
2023/12/08 08:02:38;;;;;;;;;;;;;;;;;;5046190;28;20412;-85
2023/12/08 08:05:03;;;;;;;;;;;;;;;;;;5051458;28;19960;-85
2023/12/08 08:07:28;;;;;;;;;;;;;;;;;;5053662;28;19955;-86
2023/12/08 08:09:53;;;;;;;;;;;;;;;;;;5043906;28;20006;-83
2023/12/08 08:12:18;;;;;;;;;;;;;;;;;;5052903;28;19919;-83
2023/12/08 08:14:43;;;;;;;;;;;;;;;;;;5047161;28;19913;-84
2023/12/08 08:17:08;;;;;;;;;;;;;;;;;;5051596;28;20018;-83
2023/12/08 08:19:33;;;;;;;;;;;;;;;;;;5046510;28;19913;-84
2023/12/08 08:21:59;;;;;;;;;;;;;;;;;;5042698;28;19916;-82
2023/12/08 08:24:24;;;;;;;;;;;;;;;;;;5051483;28;19964;-83
2023/12/08 08:26:49;;;;;;;;;;;;;;;;;;5053903;28;19956;-83
2023/12/08 08:29:14;;;;;;;;;;;;;;;;;;5047998;28;19999;-83
2023/12/08 08:31:39;;;;;;;;;;;;;;;;;;5041282;28;19920;-84
2023/12/08 08:34:04;;;;;;;;;;;;;;;;;;5042378;28;19996;-83
2023/12/08 08:36:30;;;;;;;;;;;;;;;;;;5047015;28;19947;-83
2023/12/08 08:38:55;;;;;;;;;;;;;;;;;;5044739;28;20350;-83
2023/12/08 08:41:21;;;;;;;;;;;;;;;;;;5047233;28;19913;-83
2023/12/08 08:43:46;;;;;;;;;;;;;;;;;;5050363;28;19920;-83
2023/12/08 08:46:11;;;;;;;;;;;;;;;;;;5049050;28;19913;-83
2023/12/08 08:48:36;;;;;;;;;;;;;;;;;;5051012;28;19970;-83
2023/12/08 08:51:01;;;;;;;;;;;;;;;;;;5046068;28;19913;-83
2023/12/08 08:53:29;;;;;;;;;;;;;;;;;;5052274;28;20383;-84
2023/12/08 08:55:54;;;;;;;;;;;;;;;;;;5045711;28;19949;-82
2023/12/08 08:58:19;;;;;;;;;;;;;;;;;;5042185;28;20392;-83
2023/12/08 09:00:45;;;;;;;;;;;;;;;;;;5050354;28;19914;-82
2023/12/08 09:03:10;;;;;;;;;;;;;;;;;;5046844;28;19916;-83
2023/12/08 09:05:40;;;;;;;;;;;;;;;;;;5050269;28;19919;-82
2023/12/08 09:08:05;;;;;;;;;;;;;;;;;;5052219;28;20356;-82
2023/12/08 09:10:30;;;;;;;;;;;;;;;;;;5047088;28;19912;-80
2023/12/08 09:12:55;;;;;;;;;;;;;;;;;;5046935;28;19919;-81
2023/12/08 09:15:20;;;;;;;;;;;;;;;;;;5046222;28;19921;-83
2023/12/08 09:17:46;;;;;;;;;;;;;;;;;;5052193;28;20498;-83
2023/12/08 09:20:14;;;;;;;;;;;;;;;;;;5043501;28;19913;-85
2023/12/08 09:22:39;;;;;;;;;;;;;;;;;;5052252;28;19913;-83
2023/12/08 09:25:04;;;;;;;;;;;;;;;;;;5046940;28;19913;-82
2023/12/08 09:27:29;;;;;;;;;;;;;;;;;;5051223;28;19921;-85
2023/12/08 09:29:55;;;;;;;;;;;;;;;;;;5049624;28;19967;-85
2023/12/08 09:32:20;;;;;;;;;;;;;;;;;;5049759;28;20349;-83
2023/12/08 09:34:45;;;;;;;;;;;;;;;;;;5050273;28;19919;-84
2023/12/08 09:37:10;;;;;;;;;;;;;;;;;;5052880;28;20008;-86
2023/12/08 09:39:35;;;;;;;;;;;;;;;;;;5045047;28;19913;-84
2023/12/08 09:42:01;;;;;;;;;;;;;;;;;;5052334;28;19919;-84
2023/12/08 09:44:26;;;;;;;;;;;;;;;;;;5049677;28;19912;-87
2023/12/08 09:46:54;;;;;;;;;;;;;;;;;;5051649;28;19917;-85
2023/12/08 09:49:20;;;;;;;;;;;;;;;;;;5045350;28;19963;-85
2023/12/08 09:51:45;;;;;;;;;;;;;;;;;;5042361;28;19949;-89
2023/12/08 09:54:10;;;;;;;;;;;;;;;;;;5052743;28;20391;-88
2023/12/08 09:56:35;;;;;;;;;;;;;;;;;;5048946;28;19921;-87
2023/12/08 09:59:00;;;;;;;;;;;;;;;;;;5052065;28;19924;-86
2023/12/08 10:01:26;;;;;;;;;;;;;;;;;;5047638;28;19913;-87
2023/12/08 10:03:51;;;;;;;;;;;;;;;;;;5045125;28;20356;-87
2023/12/08 10:06:16;;;;;;;;;;;;;;;;;;5045887;28;20020;-85
2023/12/08 10:08:41;;;;;;;;;;;;;;;;;;5047541;28;19919;-87
2023/12/08 10:11:06;;;;;;;;;;;;;;;;;;5046548;28;19913;-87
2023/12/08 10:13:31;;;;;;;;;;;;;;;;;;5052137;28;19964;-86
2023/12/08 10:15:56;;;;;;;;;;;;;;;;;;5050099;28;20008;-87
2023/12/08 10:18:21;;;;;;;;;;;;;;;;;;5051591;28;19917;-89
2023/12/08 10:20:46;;;;;;;;;;;;;;;;;;5045485;28;19975;-88
2023/12/08 10:23:11;;;;;;;;;;;;;;;;;;5043949;28;20260;-87
2023/12/08 10:25:36;;;;;;;;;;;;;;;;;;5050490;28;19920;-88
2023/12/08 10:28:02;;;;;;;;;;;;;;;;;;5051153;28;19920;-88
2023/12/08 10:30:28;;;;;;;;;;;;;;;;;;5047356;28;19936;-86
2023/12/08 10:32:53;;;;;;;;;;;;;;;;;;5039186;28;19913;-88
2023/12/08 10:35:19;;;;;;;;;;;;;;;;;;5050289;28;20059;-88
2023/12/08 10:37:44;;;;;;;;;;;;;;;;;;5048213;28;19913;-88
2023/12/08 10:40:09;;;;;;;;;;;;;;;;;;5044211;28;20280;-86
2023/12/08 10:42:34;;;;;;;;;;;;;;;;;;5050082;28;19912;-87
2023/12/08 10:44:59;;;;;;;;;;;;;;;;;;5046762;28;19919;-86
2023/12/08 10:47:24;;;;;;;;;;;;;;;;;;5052347;28;19919;-88
2023/12/08 10:49:50;;;;;;;;;;;;;;;;;;5043336;28;19939;-87
2023/12/08 10:52:15;;;;;;;;;;;;;;;;;;5050939;28;19916;-87
2023/12/08 10:54:40;;;;;;;;;;;;;;;;;;5043790;28;19913;-85
2023/12/08 10:57:05;;;;;;;;;;;;;;;;;;5041293;28;19920;-87
2023/12/08 10:59:31;;;;;;;;;;;;;;;;;;5042513;28;20298;-87
2023/12/08 11:01:56;;;;;;;;;;;;;;;;;;5044969;28;19936;-88
2023/12/08 11:04:21;;;;;;;;;;;;;;;;;;5051811;28;19913;-86
2023/12/08 11:06:47;;;;;;;;;;;;;;;;;;5046483;28;19920;-87
2023/12/08 11:09:12;;;;;;;;;;;;;;;;;;5047317;28;19913;-87
2023/12/08 11:11:37;;;;;;;;;;;;;;;;;;5048600;28;19913;-87
2023/12/08 11:14:02;;;;;;;;;;;;;;;;;;5051121;28;20395;-86
2023/12/08 11:16:28;;;;;;;;;;;;;;;;;;5051117;28;19921;-87
2023/12/08 11:18:53;;;;;;;;;;;;;;;;;;5051741;28;19916;-86
2023/12/08 11:21:18;;;;;;;;;;;;;;;;;;5051891;28;19959;-87
2023/12/08 11:23:43;;;;;;;;;;;;;;;;;;5048898;28;20372;-87
2023/12/08 11:26:08;;;;;;;;;;;;;;;;;;5053977;28;19999;-87
2023/12/08 11:28:33;;;;;;;;;;;;;;;;;;5045746;28;20311;-89
2023/12/08 11:30:58;;;;;;;;;;;;;;;;;;5049886;28;19919;-89
2023/12/08 11:33:23;;;;;;;;;;;;;;;;;;5046190;28;19960;-92
2023/12/08 11:35:48;;;;;;;;;;;;;;;;;;5050807;28;19967;-87
2023/12/08 11:38:13;;;;;;;;;;;;;;;;;;5050324;28;20008;-90
2023/12/08 11:40:41;;;;;;;;;;;;;;;;;;5052301;28;19924;-88
2023/12/08 11:43:06;;;;;;;;;;;;;;;;;;5048428;28;20292;-88
2023/12/08 11:45:31;;;;;;;;;;;;;;;;;;5051658;28;19912;-89
2023/12/08 11:47:57;;;;;;;;;;;;;;;;;;5049645;28;20345;-90
2023/12/08 11:50:24;;;;;;;;;;;;;;;;;;5053803;28;20025;-89
2023/12/08 11:52:49;;;;;;;;;;;;;;;;;;5051944;28;19913;-90
2023/12/08 11:55:20;;;;;;;;;;;;;;;;;;5043687;28;19920;-91
2023/12/08 11:57:45;;;;;;;;;;;;;;;;;;5052745;28;19917;-93
2023/12/08 12:00:11;;;;;;;;;;;;;;;;;;5052355;28;19919;-94
2023/12/08 12:02:36;;;;;;;;;;;;;;;;;;5049528;28;19920;-92
2023/12/08 12:05:02;;;;;;;;;;;;;;;;;;5049070;28;19967;-93
2023/12/08 12:07:27;;;;;;;;;;;;;;;;;;5050957;28;19928;-89
2023/12/08 12:09:52;;;;;;;;;;;;;;;;;;5050727;28;19916;-87
2023/12/08 12:12:17;;;;;;;;;;;;;;;;;;5045512;28;19959;-87
2023/12/08 12:14:43;;;;;;;;;;;;;;;;;;5053823;28;19913;-87
2023/12/08 12:17:08;;;;;;;;;;;;;;;;;;5049846;28;19927;-88
2023/12/08 12:19:33;;;;;;;;;;;;;;;;;;5047650;28;19917;-87
2023/12/08 12:21:59;;;;;;;;;;;;;;;;;;5049706;28;19952;-87
2023/12/08 12:24:24;;;;;;;;;;;;;;;;;;5051237;28;20058;-89
2023/12/08 12:26:49;;;;;;;;;;;;;;;;;;5050047;28;20342;-91
2023/12/08 12:29:15;;;;;;;;;;;;;;;;;;5051876;28;19912;-91
2023/12/08 12:31:41;;;;;;;;;;;;;;;;;;5045921;28;20011;-87
2023/12/08 12:34:06;;;;;;;;;;;;;;;;;;5048742;28;19928;-90
2023/12/08 12:36:31;;;;;;;;;;;;;;;;;;5050799;28;19927;-91
2023/12/08 12:38:56;;;;;;;;;;;;;;;;;;5046267;28;19916;-90
2023/12/08 12:41:21;;;;;;;;;;;;;;;;;;5055600;28;20387;-91
2023/12/08 12:43:46;;;;;;;;;;;;;;;;;;5053200;28;20360;-91
2023/12/08 12:46:12;;;;;;;;;;;;;;;;;;5048679;28;19919;-90
2023/12/08 12:48:37;;;;;;;;;;;;;;;;;;5049726;28;19921;-91
2023/12/08 12:51:03;;;;;;;;;;;;;;;;;;5042172;28;19921;-91
2023/12/08 12:53:28;;;;;;;;;;;;;;;;;;5048115;28;19913;-91
2023/12/08 12:55:54;;;;;;;;;;;;;;;;;;5052657;28;19924;-83
2023/12/08 12:58:19;;;;;;;;;;;;;;;;;;5052176;28;20380;-85
2023/12/08 13:00:46;;;;;;;;;;;;;;;;;;5049159;28;19920;-83
2023/12/08 13:03:11;;;;;;;;;;;;;;;;;;5048983;28;19912;-85
2023/12/08 13:05:36;;;;;;;;;;;;;;;;;;5049610;28;19919;-83
2023/12/08 13:08:03;;;;;;;;;;;;;;;;;;5045191;28;19912;-85
2023/12/08 13:10:29;;;;;;;;;;;;;;;;;;5049415;28;19913;-85
2023/12/08 13:12:54;;;;;;;;;;;;;;;;;;5046555;28;19919;-84
2023/12/08 13:15:19;;;;;;;;;;;;;;;;;;5049485;28;20353;-85
2023/12/08 13:17:44;;;;;;;;;;;;;;;;;;5048598;28;19957;-82
2023/12/08 13:20:09;;;;;;;;;;;;;;;;;;5047785;28;19920;-81
2023/12/08 13:22:35;;;;;;;;;;;;;;;;;;5051880;28;19952;-82
2023/12/08 13:25:00;;;;;;;;;;;;;;;;;;5050285;28;19935;-81
2023/12/08 13:27:25;;;;;;;;;;;;;;;;;;5047044;28;19960;-84
2023/12/08 13:29:50;;;;;;;;;;;;;;;;;;5049509;28;19925;-82
2023/12/08 13:32:15;;;;;;;;;;;;;;;;;;5051972;28;19968;-81
2023/12/08 13:34:40;;;;;;;;;;;;;;;;;;5045134;28;20421;-80
2023/12/08 13:37:06;;;;;;;;;;;;;;;;;;5045440;28;19931;-83
2023/12/08 13:39:31;;;;;;;;;;;;;;;;;;5044721;28;19920;-81
2023/12/08 13:41:56;;;;;;;;;;;;;;;;;;5049963;28;19920;-82
2023/12/08 13:44:21;;;;;;;;;;;;;;;;;;5050222;28;19929;-83
2023/12/08 13:46:46;;;;;;;;;;;;;;;;;;5052282;28;20340;-81
2023/12/08 13:49:11;;;;;;;;;;;;;;;;;;5051990;28;19920;-82
2023/12/08 13:51:36;;;;;;;;;;;;;;;;;;5049828;28;19913;-81
2023/12/08 13:54:01;;;;;;;;;;;;;;;;;;5050055;28;19919;-87
2023/12/08 13:56:27;;;;;;;;;;;;;;;;;;5041367;28;19921;-84
2023/12/08 13:58:52;;;;;;;;;;;;;;;;;;5045720;28;19963;-89
2023/12/08 14:01:17;;;;;;;;;;;;;;;;;;5050805;28;19999;-89
2023/12/08 14:03:42;;;;;;;;;;;;;;;;;;5056127;28;20012;-93
2023/12/08 14:06:07;;;;;;;;;;;;;;;;;;5057241;28;20407;-90
2023/12/08 14:08:33;;;;;;;;;;;;;;;;;;5050147;28;20018;-89
2023/12/08 14:10:59;;;;;;;;;;;;;;;;;;5047796;28;19921;-86
2023/12/08 14:13:24;;;;;;;;;;;;;;;;;;5037909;28;20257;-87
2023/12/08 14:15:49;;;;;;;;;;;;;;;;;;5047666;28;20099;-89
2023/12/08 14:18:14;;;;;;;;;;;;;;;;;;5050858;28;19919;-88
2023/12/08 14:20:39;;;;;;;;;;;;;;;;;;5042484;28;19917;-89
2023/12/08 14:23:04;;;;;;;;;;;;;;;;;;5051634;28;20360;-82
2023/12/08 14:25:29;;;;;;;;;;;;;;;;;;5051362;28;19913;-91
2023/12/08 14:27:55;;;;;;;;;;;;;;;;;;5045580;28;19921;-92
2023/12/08 14:30:20;;;;;;;;;;;;;;;;;;5047649;28;19921;-94
2023/12/08 14:32:45;;;;;;;;;;;;;;;;;;5054988;28;20294;-94
2023/12/08 14:35:10;;;;;;;;;;;;;;;;;;5052850;28;19991;-93
2023/12/08 14:37:35;;;;;;;;;;;;;;;;;;5042255;28;20012;-93
2023/12/08 14:40:01;;;;;;;;;;;;;;;;;;5052813;28;19913;-90
2023/12/08 14:42:26;;;;;;;;;;;;;;;;;;5069888;22;19948;-95
2023/12/08 14:44:52;;;;;;;;;;;;;;;;;;5053558;28;19925;-91
2023/12/08 14:47:17;;;;;;;;;;;;;;;;;;5052155;28;19913;-90
2023/12/08 14:49:43;;;;;;;;;;;;;;;;;;5053926;28;19928;-93
2023/12/08 14:52:08;;;;;;;;;;;;;;;;;;5046782;28;20022;-93
2023/12/08 14:54:35;;;;;;;;;;;;;;;;;;5055332;28;20362;-88
2023/12/08 14:57:00;;;;;;;;;;;;;;;;;;5054272;28;19956;-92
2023/12/08 14:59:25;;;;;;;;;;;;;;;;;;5054451;28;19913;-88
2023/12/08 15:01:50;;;;;;;;;;;;;;;;;;5054030;28;19917;-90
2023/12/08 15:04:15;;;;;;;;;;;;;;;;;;5054637;28;19920;-95
2023/12/08 15:06:40;;;;;;;;;;;;;;;;;;5052875;28;19920;-94
2023/12/08 15:09:06;;;;;;;;;;;;;;;;;;5053153;28;20399;-89
2023/12/08 15:11:31;;;;;;;;;;;;;;;;;;5055876;28;19917;-95
2023/12/08 15:13:56;;;;;;;;;;;;;;;;;;5047356;28;19913;-93
2023/12/08 15:16:21;;;;;;;;;;;;;;;;;;5049943;28;19924;-86
2023/12/08 15:18:46;;;;;;;;;;;;;;;;;;5049612;28;19913;-87
2023/12/08 15:21:21;;;;;;;;;;;;;;;;;;5051392;28;19956;-89
2023/12/08 15:23:50;;;;;;;;;;;;;;;;;;5049537;28;19916;-93
2023/12/08 15:26:15;;;;;;;;;;;;;;;;;;5057576;28;19913;-96
2023/12/08 15:28:40;;;;;;;;;;;;;;;;;;5059905;28;19914;-95
2023/12/08 15:31:05;;;;;;;;;;;;;;;;;;5058331;28;19917;-93
2023/12/08 15:33:31;;;;;;;;;;;;;;;;;;5057348;28;19912;-94
2023/12/08 15:35:56;;;;;;;;;;;;;;;;;;5052304;28;19935;-89
2023/12/08 15:38:21;;;;;;;;;;;;;;;;;;5064788;28;19964;-95
2023/12/08 15:40:46;;;;;;;;;;;;;;;;;;5070608;28;19936;-95
2023/12/08 15:43:12;;;;;;;;;;;;;;;;;;5051810;28;20364;-93
2023/12/08 15:45:37;;;;;;;;;;;;;;;;;;5043686;28;19921;-93
2023/12/08 15:48:02;;;;;;;;;;;;;;;;;;5053092;28;20458;-86
2023/12/08 15:50:27;;;;;;;;;;;;;;;;;;5046215;28;20003;-88
2023/12/08 15:52:52;;;;;;;;;;;;;;;;;;5050392;28;19920;-86
2023/12/08 15:55:17;;;;;;;;;;;;;;;;;;5048484;28;19920;-86
2023/12/08 15:57:43;;;;;;;;;;;;;;;;;;5053996;28;19921;-88
2023/12/08 16:00:08;;;;;;;;;;;;;;;;;;5050171;28;20387;-87
2023/12/08 16:02:33;;;;;;;;;;;;;;;;;;5053197;28;19913;-85
2023/12/08 16:04:58;;;;;;;;;;;;;;;;;;5046959;28;19917;-84
2023/12/08 16:07:24;;;;;;;;;;;;;;;;;;5046312;28;20380;-87
2023/12/08 16:09:49;;;;;;;;;;;;;;;;;;5051019;28;19916;-84
2023/12/08 16:12:14;;;;;;;;;;;;;;;;;;5050815;28;19912;-84
2023/12/08 16:14:39;;;;;;;;;;;;;;;;;;5055039;28;19920;-82
2023/12/08 16:17:04;;;;;;;;;;;;;;;;;;5046177;28;19921;-86
2023/12/08 16:19:29;;;;;;;;;;;;;;;;;;5054394;28;19958;-83
2023/12/08 16:21:54;;;;;;;;;;;;;;;;;;5050127;28;19913;-86
2023/12/08 16:24:19;;;;;;;;;;;;;;;;;;5045177;28;19912;-83
2023/12/08 16:26:45;;;;;;;;;;;;;;;;;;5048894;28;19913;-82
2023/12/08 16:29:10;;;;;;;;;;;;;;;;;;5046375;28;20323;-83
2023/12/08 16:31:35;;;;;;;;;;;;;;;;;;5054007;28;19999;-83